Time,TemperatureF,DewpointF,PressureIn,WindDirection,WindDirectionDegrees,WindSpeedMPH,WindSpeedGustMPH,Humidity,HourlyPrecipIn,Conditions,Clouds,dailyrainin,SoftwareType,DateUTC
2013-01-17 00:03:00,32.0,-99.9,-100.00,West,278,3.0,6.0,-999,-99.99,,,-99.99,,2013-01-17 06:03:00,
2013-01-17 00:12:00,32.0,-99.9,-100.00,WNW,299,4.0,6.0,-999,-99.99,,,-99.99,,2013-01-17 06:12:00,
2013-01-17 00:22:00,32.0,-99.9,-100.00,WNW,299,4.0,6.0,-999,-99.99,,,-99.99,,2013-01-17 06:22:00,
2013-01-17 00:33:00,31.0,-99.9,-100.00,West,265,4.0,7.0,-999,-99.99,,,-99.99,,2013-01-17 06:33:00,
2013-01-17 00:42:00,31.0,-99.9,-100.00,West,265,4.0,7.0,-999,-99.99,,,-99.99,,2013-01-17 06:42:00,
2013-01-17 00:53:00,32.0,-99.9,-100.00,West,275,4.0,6.0,-999,-99.99,,,-99.99,,2013-01-17 06:53:00,
2013-01-17 01:03:00,33.0,-99.9,-100.00,WNW,299,0.0,7.0,-999,-99.99,,,-99.99,,2013-01-17 07:03:00,
2013-01-17 01:12:00,33.0,-99.9,-100.00,WNW,299,0.0,7.0,-999,-99.99,,,-99.99,,2013-01-17 07:12:00,
2013-01-17 01:22:00,33.0,-99.9,-100.00,WNW,299,0.0,0.0,-999,-99.99,,,-99.99,,2013-01-17 07:22:00,
2013-01-17 01:33:00,32.0,-99.9,-100.00,WNW,299,0.0,0.0,-999,-99.99,,,-99.99,,2013-01-17 07:33:00,
2013-01-17 01:43:00,32.0,-99.9,-100.00,WNW,299,0.0,0.0,-999,-99.99,,,-99.99,,2013-01-17 07:43:00,
2013-01-17 01:53:00,32.0,-99.9,-100.00,WNW,299,0.0,0.0,-999,-99.99,,,-99.99,,2013-01-17 07:53:00,
2013-01-17 02:02:00,30.0,-99.9,-100.00,WNW,299,0.0,0.0,-999,-99.99,,,-99.99,,2013-01-17 08:02:00,
2013-01-17 02:12:00,30.0,-99.9,-100.00,WNW,299,0.0,0.0,-999,-99.99,,,-99.99,,2013-01-17 08:12:00,
2013-01-17 02:22:00,32.0,-99.9,-100.00,WNW,299,0.0,0.0,-999,-99.99,,,-99.99,,2013-01-17 08:22:00,
2013-01-17 02:33:00,32.0,-99.9,-100.00,WNW,299,0.0,0.0,-999,-99.99,,,-99.99,,2013-01-17 08:33:00,
2013-01-17 02:44:00,32.0,-99.9,-100.00,WNW,299,0.0,0.0,-999,-99.99,,,-99.99,,2013-01-17 08:44:00,
2013-01-17 02:53:00,32.0,-99.9,-100.00,WNW,299,0.0,0.0,-999,-99.99,,,-99.99,,2013-01-17 08:53:00,
2013-01-17 03:03:00,32.0,-99.9,-100.00,WNW,299,0.0,0.0,-999,-99.99,,,-99.99,,2013-01-17 09:03:00,
2013-01-17 03:12:00,32.0,-99.9,-100.00,WNW,299,0.0,0.0,-999,-99.99,,,-99.99,,2013-01-17 09:12:00,
2013-01-17 03:22:00,32.0,-99.9,-100.00,WNW,299,0.0,0.0,-999,-99.99,,,-99.99,,2013-01-17 09:22:00,
2013-01-17 03:33:00,29.0,-99.9,-100.00,WNW,299,0.0,0.0,-999,-99.99,,,-99.99,,2013-01-17 09:33:00,
2013-01-17 03:43:00,29.0,-99.9,-100.00,WNW,299,0.0,0.0,-999,-99.99,,,-99.99,,2013-01-17 09:43:00,
2013-01-17 03:53:00,30.0,-99.9,-100.00,WNW,299,0.0,0.0,-999,-99.99,,,-99.99,,2013-01-17 09:53:00,
2013-01-17 04:02:00,30.0,-99.9,-100.00,WNW,299,0.0,0.0,-999,-99.99,,,-99.99,,2013-01-17 10:02:00,
2013-01-17 04:12:00,30.0,-99.9,-100.00,WNW,299,0.0,0.0,-999,-99.99,,,-99.99,,2013-01-17 10:12:00,
2013-01-17 04:22:00,29.0,-99.9,-100.00,WNW,299,0.0,0.0,-999,-99.99,,,-99.99,,2013-01-17 10:22:00,
2013-01-17 04:33:00,30.0,-99.9,-100.00,WNW,299,0.0,0.0,-999,-99.99,,,-99.99,,2013-01-17 10:33:00,
2013-01-17 04:43:00,30.0,-99.9,-100.00,WNW,299,0.0,0.0,-999,-99.99,,,-99.99,,2013-01-17 10:43:00,
2013-01-17 04:53:00,29.0,-99.9,-100.00,WNW,299,0.0,0.0,-999,-99.99,,,-99.99,,2013-01-17 10:53:00,
2013-01-17 05:03:00,30.0,-99.9,-100.00,WNW,299,0.0,0.0,-999,-99.99,,,-99.99,,2013-01-17 11:03:00,
2013-01-17 05:12:00,30.0,-99.9,-100.00,WNW,299,0.0,0.0,-999,-99.99,,,-99.99,,2013-01-17 11:12:00,
2013-01-17 05:23:00,29.0,-99.9,-100.00,WNW,299,0.0,0.0,-999,-99.99,,,-99.99,,2013-01-17 11:23:00,
2013-01-17 05:33:00,29.0,-99.9,-100.00,WNW,299,0.0,0.0,-999,-99.99,,,-99.99,,2013-01-17 11:33:00,
2013-01-17 05:43:00,29.0,-99.9,-100.00,WNW,299,0.0,0.0,-999,-99.99,,,-99.99,,2013-01-17 11:43:00,
2013-01-17 05:53:00,29.0,-99.9,-100.00,WNW,299,0.0,0.0,-999,-99.99,,,-99.99,,2013-01-17 11:53:00,
2013-01-17 06:03:00,29.0,-99.9,-100.00,WNW,299,0.0,0.0,-999,-99.99,,,-99.99,,2013-01-17 12:03:00,
2013-01-17 06:12:00,29.0,-99.9,-100.00,WNW,299,0.0,0.0,-999,-99.99,,,-99.99,,2013-01-17 12:12:00,
2013-01-17 06:23:00,29.0,-99.9,-100.00,North,350,10.0,19.0,-999,-99.99,,,-99.99,,2013-01-17 12:23:00,
2013-01-17 06:33:00,28.0,-99.9,-100.00,NNE,25,0.0,18.0,-999,-99.99,,,-99.99,,2013-01-17 12:33:00,
2013-01-17 06:43:00,28.0,-99.9,-100.00,NNE,25,0.0,18.0,-999,-99.99,,,-99.99,,2013-01-17 12:43:00,
2013-01-17 06:53:00,29.0,-99.9,-100.00,NNE,21,0.0,0.0,-999,-99.99,,,-99.99,,2013-01-17 12:53:00,
2013-01-17 07:03:00,28.0,-99.9,-100.00,NNE,21,0.0,0.0,-999,-99.99,,,-99.99,,2013-01-17 13:03:00,
2013-01-17 07:13:00,28.0,-99.9,-100.00,NNE,21,0.0,0.0,-999,-99.99,,,-99.99,,2013-01-17 13:13:00,
2013-01-17 07:23:00,27.0,-99.9,-100.00,NNE,21,0.0,0.0,-999,-99.99,,,-99.99,,2013-01-17 13:23:00,
2013-01-17 07:33:00,27.0,-99.9,-100.00,NNE,23,16.0,22.0,-999,-99.99,,,-99.99,,2013-01-17 13:33:00,
2013-01-17 07:43:00,26.0,-99.9,-100.00,NNE,14,10.0,19.0,-999,-99.99,,,-99.99,,2013-01-17 13:43:00,
2013-01-17 07:53:00,26.0,-99.9,-100.00,NNE,14,10.0,19.0,-999,-99.99,,,-99.99,,2013-01-17 13:53:00,
2013-01-17 08:04:00,29.0,-99.9,-100.00,NNE,18,0.0,0.0,-999,-99.99,,,-99.99,,2013-01-17 14:04:00,
2013-01-17 08:13:00,29.0,-99.9,-100.00,NNE,18,0.0,0.0,-999,-99.99,,,-99.99,,2013-01-17 14:13:00,
2013-01-17 08:23:00,30.0,-99.9,-100.00,North,358,0.0,0.0,-999,-99.99,,,-99.99,,2013-01-17 14:23:00,
2013-01-17 08:33:00,31.0,-99.9,-100.00,North,358,0.0,16.0,-999,-99.99,,,-99.99,,2013-01-17 14:33:00,
2013-01-17 08:43:00,31.0,-99.9,-100.00,North,358,0.0,16.0,-999,-99.99,,,-99.99,,2013-01-17 14:43:00,
2013-01-17 08:53:00,31.0,-99.9,-100.00,NNE,21,0.0,17.0,-999,-99.99,,,-99.99,,2013-01-17 14:53:00,
2013-01-17 09:03:00,30.0,-99.9,-100.00,North,4,16.0,22.0,-999,-99.99,,,-99.99,,2013-01-17 15:03:00,
2013-01-17 09:13:00,30.0,-99.9,-100.00,North,4,16.0,22.0,-999,-99.99,,,-99.99,,2013-01-17 15:13:00,
2013-01-17 09:23:00,31.0,-99.9,-100.00,NNE,16,0.0,21.0,-999,-99.99,,,-99.99,,2013-01-17 15:23:00,
2013-01-17 09:33:00,31.0,-99.9,-100.00,North,354,17.0,20.0,-999,-99.99,,,-99.99,,2013-01-17 15:33:00,
2013-01-17 09:44:00,31.0,-99.9,-100.00,North,354,17.0,20.0,-999,-99.99,,,-99.99,,2013-01-17 15:44:00,
2013-01-17 09:53:00,32.0,-99.9,-100.00,North,8,13.0,18.0,-999,-99.99,,,-99.99,,2013-01-17 15:53:00,
2013-01-17 10:03:00,35.0,-99.9,-100.00,NNE,19,0.0,0.0,-999,-99.99,,,-99.99,,2013-01-17 16:03:00,
2013-01-17 10:13:00,35.0,-99.9,-100.00,NNE,19,0.0,0.0,-999,-99.99,,,-99.99,,2013-01-17 16:13:00,
2013-01-17 10:23:00,34.0,-99.9,-100.00,NNE,19,0.0,0.0,-999,-99.99,,,-99.99,,2013-01-17 16:23:00,
2013-01-17 10:34:00,34.0,-99.9,-100.00,NNE,19,0.0,0.0,-999,-99.99,,,-99.99,,2013-01-17 16:34:00,
2013-01-17 10:44:00,34.0,-99.9,-100.00,NNE,19,0.0,0.0,-999,-99.99,,,-99.99,,2013-01-17 16:44:00,
2013-01-17 10:53:00,35.0,-99.9,-100.00,NNE,19,0.0,0.0,-999,-99.99,,,-99.99,,2013-01-17 16:53:00,
2013-01-17 11:04:00,34.0,-99.9,-100.00,NNE,12,0.0,10.0,-999,-99.99,,,-99.99,,2013-01-17 17:04:00,
2013-01-17 11:13:00,34.0,-99.9,-100.00,NNE,12,0.0,10.0,-999,-99.99,,,-99.99,,2013-01-17 17:13:00,
2013-01-17 11:23:00,34.0,-99.9,-100.00,NW,316,13.0,20.0,-999,-99.99,,,-99.99,,2013-01-17 17:23:00,
2013-01-17 11:33:00,33.0,-99.9,-100.00,NW,319,12.0,22.0,-999,-99.99,,,-99.99,,2013-01-17 17:33:00,
2013-01-17 11:43:00,33.0,-99.9,-100.00,NW,319,12.0,22.0,-999,-99.99,,,-99.99,,2013-01-17 17:43:00,
2013-01-17 11:54:00,32.0,-99.9,-100.00,NW,307,17.0,19.0,-999,-99.99,,,-99.99,,2013-01-17 17:54:00,
2013-01-17 12:04:00,31.0,-99.9,-100.00,North,355,13.0,21.0,-999,-99.99,,,-99.99,,2013-01-17 18:04:00,
2013-01-17 12:13:00,31.0,-99.9,-100.00,North,355,13.0,21.0,-999,-99.99,,,-99.99,,2013-01-17 18:13:00,
2013-01-17 12:23:00,31.0,-99.9,-100.00,NW,319,15.0,20.0,-999,-99.99,,,-99.99,,2013-01-17 18:23:00,
2013-01-17 12:34:00,31.0,-99.9,-100.00,North,0,17.0,19.0,-999,-99.99,,,-99.99,,2013-01-17 18:34:00,
2013-01-17 12:44:00,31.0,-99.9,-100.00,North,0,17.0,19.0,-999,-99.99,,,-99.99,,2013-01-17 18:44:00,
2013-01-17 12:54:00,31.0,-99.9,-100.00,North,4,0.0,20.0,-999,-99.99,,,-99.99,,2013-01-17 18:54:00,
2013-01-17 13:04:00,31.0,-99.9,-100.00,North,5,0.0,17.0,-999,-99.99,,,-99.99,,2013-01-17 19:04:00,
2013-01-17 13:13:00,31.0,-99.9,-100.00,North,5,0.0,17.0,-999,-99.99,,,-99.99,,2013-01-17 19:13:00,
2013-01-17 13:23:00,31.0,-99.9,-100.00,NNW,330,18.0,21.0,-999,-99.99,,,-99.99,,2013-01-17 19:23:00,
2013-01-17 13:33:00,31.0,-99.9,-100.00,NNW,330,21.0,22.0,-999,-99.99,,,-99.99,,2013-01-17 19:33:00,
2013-01-17 13:43:00,31.0,-99.9,-100.00,NNW,330,21.0,22.0,-999,-99.99,,,-99.99,,2013-01-17 19:43:00,
2013-01-17 13:54:00,31.0,-99.9,-100.00,NNW,345,9.0,21.0,-999,-99.99,,,-99.99,,2013-01-17 19:54:00,
2013-01-17 14:03:00,31.0,-99.9,-100.00,North,1,15.0,20.0,-999,-99.99,,,-99.99,,2013-01-17 20:03:00,
2013-01-17 14:13:00,31.0,-99.9,-100.00,North,1,15.0,20.0,-999,-99.99,,,-99.99,,2013-01-17 20:13:00,
2013-01-17 14:23:00,30.0,-99.9,-100.00,North,8,13.0,18.0,-999,-99.99,,,-99.99,,2013-01-17 20:23:00,
2013-01-17 14:34:00,31.0,-99.9,-100.00,NNW,331,13.0,20.0,-999,-99.99,,,-99.99,,2013-01-17 20:34:00,
2013-01-17 14:44:00,31.0,-99.9,-100.00,NNW,331,13.0,20.0,-999,-99.99,,,-99.99,,2013-01-17 20:44:00,
2013-01-17 14:54:00,30.0,-99.9,-100.00,NNW,331,9.0,21.0,-999,-99.99,,,-99.99,,2013-01-17 20:54:00,
2013-01-17 15:03:00,30.0,-99.9,-100.00,NNW,341,13.0,20.0,-999,-99.99,,,-99.99,,2013-01-17 21:03:00,
2013-01-17 15:13:00,30.0,-99.9,-100.00,NNW,341,13.0,20.0,-999,-99.99,,,-99.99,,2013-01-17 21:13:00,
2013-01-17 15:24:00,30.0,-99.9,-100.00,North,355,14.0,21.0,-999,-99.99,,,-99.99,,2013-01-17 21:24:00,
2013-01-17 15:34:00,31.0,-99.9,-100.00,North,354,10.0,16.0,-999,-99.99,,,-99.99,,2013-01-17 21:34:00,
2013-01-17 15:43:00,31.0,-99.9,-100.00,North,354,10.0,16.0,-999,-99.99,,,-99.99,,2013-01-17 21:43:00,
2013-01-17 15:54:00,30.0,-99.9,-100.00,NNW,334,0.0,22.0,-999,-99.99,,,-99.99,,2013-01-17 21:54:00,
2013-01-17 16:04:00,30.0,-99.9,-100.00,NNW,334,0.0,0.0,-999,-99.99,,,-99.99,,2013-01-17 22:04:00,
2013-01-17 16:13:00,30.0,-99.9,-100.00,NNW,334,0.0,0.0,-999,-99.99,,,-99.99,,2013-01-17 22:13:00,
2013-01-17 16:23:00,29.0,-99.9,-100.00,NNW,343,0.0,0.0,-999,-99.99,,,-99.99,,2013-01-17 22:23:00,
2013-01-17 16:33:00,29.0,-99.9,-100.00,NNW,343,0.0,0.0,-999,-99.99,,,-99.99,,2013-01-17 22:33:00,
2013-01-17 16:43:00,29.0,-99.9,-100.00,NNW,343,0.0,0.0,-999,-99.99,,,-99.99,,2013-01-17 22:43:00,
2013-01-17 16:53:00,29.0,-99.9,-100.00,NNW,343,0.0,0.0,-999,-99.99,,,-99.99,,2013-01-17 22:53:00,
2013-01-17 17:03:00,28.0,-99.9,-100.00,NNW,343,0.0,0.0,-999,-99.99,,,-99.99,,2013-01-17 23:03:00,
2013-01-17 17:12:00,28.0,-99.9,-100.00,NNW,343,0.0,0.0,-999,-99.99,,,-99.99,,2013-01-17 23:12:00,
2013-01-17 17:23:00,27.0,-99.9,-100.00,NNW,343,0.0,0.0,-999,-99.99,,,-99.99,,2013-01-17 23:23:00,
2013-01-17 17:33:00,25.0,-99.9,-100.00,NNW,343,0.0,0.0,-999,-99.99,,,-99.99,,2013-01-17 23:33:00,
2013-01-17 17:43:00,25.0,-99.9,-100.00,NNW,343,0.0,0.0,-999,-99.99,,,-99.99,,2013-01-17 23:43:00,
2013-01-17 17:53:00,26.0,-99.9,-100.00,NNW,343,0.0,0.0,-999,-99.99,,,-99.99,,2013-01-17 23:53:00,
2013-01-17 18:03:00,25.0,-99.9,-100.00,NNW,343,0.0,0.0,-999,-99.99,,,-99.99,,2013-01-18 00:03:00,
2013-01-17 18:13:00,25.0,-99.9,-100.00,NNW,343,0.0,0.0,-999,-99.99,,,-99.99,,2013-01-18 00:13:00,
2013-01-17 18:23:00,24.0,-99.9,-100.00,NNW,343,0.0,0.0,-999,-99.99,,,-99.99,,2013-01-18 00:23:00,
2013-01-17 18:33:00,24.0,-99.9,-100.00,NNW,343,0.0,0.0,-999,-99.99,,,-99.99,,2013-01-18 00:33:00,
2013-01-17 18:43:00,23.0,-99.9,-100.00,NNW,343,0.0,0.0,-999,-99.99,,,-99.99,,2013-01-18 00:43:00,
2013-01-17 18:53:00,22.0,-99.9,-100.00,NNW,343,0.0,0.0,-999,-99.99,,,-99.99,,2013-01-18 00:53:00,
2013-01-17 19:03:00,22.0,-99.9,-100.00,NNW,343,0.0,0.0,-999,-99.99,,,-99.99,,2013-01-18 01:03:00,
2013-01-17 19:13:00,22.0,-99.9,-100.00,NNW,343,0.0,0.0,-999,-99.99,,,-99.99,,2013-01-18 01:13:00,
2013-01-17 19:23:00,21.0,-99.9,-100.00,NNW,343,0.0,0.0,-999,-99.99,,,-99.99,,2013-01-18 01:23:00,
2013-01-17 19:33:00,21.0,-99.9,-100.00,NNW,343,0.0,0.0,-999,-99.99,,,-99.99,,2013-01-18 01:33:00,
2013-01-17 19:43:00,21.0,-99.9,-100.00,NNW,343,0.0,0.0,-999,-99.99,,,-99.99,,2013-01-18 01:43:00,
2013-01-17 19:53:00,22.0,-99.9,-100.00,NNW,334,0.0,4.0,-999,-99.99,,,-99.99,,2013-01-18 01:53:00,
2013-01-17 20:03:00,21.0,-99.9,-100.00,West,279,0.0,4.0,-999,-99.99,,,-99.99,,2013-01-18 02:03:00,
2013-01-17 20:12:00,21.0,-99.9,-100.00,West,279,0.0,4.0,-999,-99.99,,,-99.99,,2013-01-18 02:12:00,
2013-01-17 20:23:00,21.0,-99.9,-100.00,West,281,0.0,3.0,-999,-99.99,,,-99.99,,2013-01-18 02:23:00,
2013-01-17 20:33:00,21.0,-99.9,-100.00,West,279,4.0,4.0,-999,-99.99,,,-99.99,,2013-01-18 02:33:00,
2013-01-17 20:43:00,21.0,-99.9,-100.00,West,279,4.0,4.0,-999,-99.99,,,-99.99,,2013-01-18 02:43:00,
2013-01-17 20:53:00,22.0,-99.9,-100.00,WSW,237,0.0,5.0,-999,-99.99,,,-99.99,,2013-01-18 02:53:00,
2013-01-17 21:03:00,21.0,-99.9,-100.00,West,265,3.0,5.0,-999,-99.99,,,-99.99,,2013-01-18 03:03:00,
2013-01-17 21:13:00,21.0,-99.9,-100.00,West,265,3.0,5.0,-999,-99.99,,,-99.99,,2013-01-18 03:13:00,
2013-01-17 21:23:00,21.0,-99.9,-100.00,WNW,296,0.0,0.0,-999,-99.99,,,-99.99,,2013-01-18 03:23:00,
2013-01-17 21:33:00,20.0,-99.9,-100.00,NW,305,0.0,4.0,-999,-99.99,,,-99.99,,2013-01-18 03:33:00,
2013-01-17 21:43:00,20.0,-99.9,-100.00,NW,305,0.0,4.0,-999,-99.99,,,-99.99,,2013-01-18 03:43:00,
2013-01-17 21:53:00,21.0,-99.9,-100.00,NW,312,0.0,4.0,-999,-99.99,,,-99.99,,2013-01-18 03:53:00,
2013-01-17 22:03:00,20.0,-99.9,-100.00,NW,312,0.0,0.0,-999,-99.99,,,-99.99,,2013-01-18 04:03:00,
2013-01-17 22:12:00,20.0,-99.9,-100.00,NW,312,0.0,0.0,-999,-99.99,,,-99.99,,2013-01-18 04:12:00,
2013-01-17 22:22:00,20.0,-99.9,-100.00,NW,312,0.0,0.0,-999,-99.99,,,-99.99,,2013-01-18 04:22:00,
2013-01-17 22:33:00,20.0,-99.9,-100.00,WSW,239,0.0,0.0,-999,-99.99,,,-99.99,,2013-01-18 04:33:00,
2013-01-17 22:43:00,20.0,-99.9,-100.00,WSW,239,0.0,0.0,-999,-99.99,,,-99.99,,2013-01-18 04:43:00,
2013-01-17 22:53:00,19.0,-99.9,-100.00,WSW,239,0.0,0.0,-999,-99.99,,,-99.99,,2013-01-18 04:53:00,
2013-01-17 23:04:00,20.0,-99.9,-100.00,WSW,239,0.0,0.0,-999,-99.99,,,-99.99,,2013-01-18 05:04:00,
2013-01-17 23:12:00,20.0,-99.9,-100.00,WSW,239,0.0,0.0,-999,-99.99,,,-99.99,,2013-01-18 05:12:00,
2013-01-17 23:22:00,19.0,-99.9,-100.00,WSW,239,0.0,0.0,-999,-99.99,,,-99.99,,2013-01-18 05:22:00,
2013-01-17 23:34:00,19.0,-99.9,-100.00,WSW,239,0.0,0.0,-999,-99.99,,,-99.99,,2013-01-18 05:34:00,
2013-01-17 23:43:00,19.0,-99.9,-100.00,WSW,239,0.0,0.0,-999,-99.99,,,-99.99,,2013-01-18 05:43:00,
2013-01-17 23:53:00,20.0,-99.9,-100.00,WSW,239,0.0,0.0,-999,-99.99,,,-99.99,,2013-01-18 05:53:00,